createdAt,value
2022-09-12T00:02:28.442Z,1.75
2022-09-12T00:07:31.958Z,2.15
2022-09-12T00:12:35.373Z,3.72
2022-09-12T00:17:41.119Z,5.32
2022-09-12T00:22:44.909Z,3.63
2022-09-12T00:27:48.374Z,4.53
2022-09-12T00:32:54.852Z,3.17
2022-09-12T00:37:58.262Z,2.47
2022-09-12T00:43:01.796Z,3.15
2022-09-12T00:48:07.321Z,3.23
2022-09-12T00:53:10.855Z,8.70
2022-09-12T00:58:18.765Z,2.30
2022-09-12T01:03:25.166Z,3.55
2022-09-12T01:08:29.997Z,4.40
2022-09-12T01:13:35.124Z,3.33
2022-09-12T01:19:01.549Z,4.07
2022-09-12T01:24:23.205Z,2.20
2022-09-12T01:29:50.053Z,2.17
2022-09-12T01:35:06.991Z,3.70
2022-09-12T01:40:16.047Z,3.65
2022-09-12T01:45:25.922Z,4.03
2022-09-12T01:50:35.305Z,2.00
2022-09-12T01:55:45.268Z,2.37
2022-09-12T02:01:06.619Z,3.50
2022-09-12T02:06:18.318Z,2.00
2022-09-12T02:11:22.991Z,4.73
2022-09-12T02:16:33.196Z,1.40
2022-09-12T02:21:40.902Z,2.03
2022-09-12T02:26:49.410Z,2.95
2022-09-12T02:31:58.209Z,2.50
2022-09-12T02:37:14.229Z,2.37
2022-09-12T02:42:17.700Z,2.58
2022-09-12T02:47:28.594Z,1.67
2022-09-12T02:52:33.857Z,3.40
2022-09-12T02:57:37.250Z,2.27
2022-09-12T03:02:55.505Z,2.97
2022-09-12T03:08:14.456Z,2.20
2022-09-12T03:13:24.695Z,3.10
2022-09-12T03:18:40.648Z,1.90
2022-09-12T03:23:52.569Z,4.67
2022-09-12T03:28:57.539Z,3.33
2022-09-12T03:34:01.771Z,2.60
2022-09-12T03:39:06.561Z,7.57
2022-09-12T03:44:10.267Z,2.57
2022-09-12T03:49:13.881Z,2.33
2022-09-12T03:54:18.714Z,3.67
2022-09-12T03:59:22.132Z,3.42
2022-09-12T04:04:25.937Z,3.77
2022-09-12T04:09:30.790Z,2.57
2022-09-12T04:14:34.588Z,1.87
2022-09-12T04:19:38.385Z,2.70
2022-09-12T04:24:43.346Z,1.90
2022-09-12T04:29:46.783Z,2.53
2022-09-12T04:34:50.217Z,2.57
2022-09-12T04:39:58.017Z,2.00
2022-09-12T04:45:01.501Z,2.60
2022-09-12T04:50:08.126Z,1.77
2022-09-12T04:55:12.958Z,2.90
2022-09-12T05:00:16.744Z,2.23
2022-09-12T05:05:20.337Z,2.07
2022-09-12T05:10:25.201Z,2.13
2022-09-12T05:15:28.916Z,2.30
2022-09-12T05:20:32.354Z,3.00
2022-09-12T05:25:37.185Z,6.83
2022-09-12T05:30:40.624Z,2.80
2022-09-12T05:35:44.083Z,2.80
2022-09-12T05:40:48.861Z,2.33
2022-09-12T05:45:52.501Z,6.30
2022-09-12T05:51:01.587Z,2.10
2022-09-12T05:56:09.462Z,3.00
2022-09-12T06:01:14.823Z,1.40
2022-09-12T06:06:19.661Z,3.47
2022-09-12T06:11:28.134Z,1.43
2022-09-12T06:16:33.332Z,2.27
2022-09-12T06:21:37.950Z,2.70
2022-09-12T06:26:43.872Z,2.40
2022-09-12T06:31:47.478Z,3.00
2022-09-12T06:36:51.375Z,3.33
2022-09-12T06:41:56.243Z,3.08
2022-09-12T06:47:10.042Z,1.80
2022-09-12T06:52:13.437Z,1.50
2022-09-12T06:57:18.369Z,1.45
2022-09-12T07:02:21.845Z,1.63
2022-09-12T07:07:25.727Z,3.83
2022-09-12T07:12:30.714Z,0.80
2022-09-12T07:17:37.606Z,2.38
2022-09-12T07:22:41.498Z,2.80
2022-09-12T07:27:50.608Z,2.05
2022-09-12T07:32:54.897Z,2.00
2022-09-12T07:37:58.299Z,2.78
2022-09-12T07:43:03.093Z,2.10
2022-09-12T07:48:06.557Z,1.75
2022-09-12T07:53:10.034Z,2.58
2022-09-12T07:58:14.899Z,2.10
2022-09-12T08:03:18.892Z,1.52
2022-09-12T08:08:23.089Z,5.85
2022-09-12T08:13:28.009Z,9.73
2022-09-12T08:18:32.974Z,1.70
2022-09-12T08:23:36.445Z,3.25
2022-09-12T08:28:41.908Z,2.38
2022-09-12T08:33:45.568Z,0.85
2022-09-12T08:38:51.296Z,3.20
2022-09-12T08:44:07.080Z,0.80
2022-09-12T08:49:14.194Z,3.17
2022-09-12T08:54:23.101Z,1.25
2022-09-12T08:59:27.928Z,0.65
2022-09-12T09:04:44.017Z,2.53
2022-09-12T09:10:07.985Z,1.15
2022-09-12T09:15:41.304Z,1.23
2022-09-12T09:20:51.797Z,1.35
2022-09-12T09:25:59.833Z,0.60
2022-09-12T09:31:05.169Z,2.47
2022-09-12T09:36:22.544Z,1.60
2022-09-12T09:41:47.494Z,3.08
2022-09-12T09:46:55.872Z,1.15
2022-09-12T09:52:01.838Z,1.05
2022-09-12T09:57:05.501Z,0.80
2022-09-12T10:02:24.440Z,1.00
2022-09-12T10:07:29.187Z,1.00
2022-09-12T10:12:32.712Z,1.73
2022-09-12T10:17:46.168Z,2.15
2022-09-12T10:22:50.619Z,2.95
2022-09-12T10:27:56.579Z,1.35
2022-09-12T10:33:12.945Z,1.15
2022-09-12T10:38:22.762Z,1.15
2022-09-12T10:43:31.050Z,0.95
2022-09-12T10:48:36.310Z,0.95
2022-09-12T10:53:42.652Z,0.82
2022-09-12T10:59:04.852Z,0.88
2022-09-12T11:04:30.218Z,3.33
2022-09-12T11:09:41.569Z,1.77
2022-09-12T11:15:01.014Z,1.52
2022-09-12T11:20:32.635Z,2.47
2022-09-12T11:25:44.996Z,1.30
2022-09-12T11:31:01.157Z,1.73
2022-09-12T11:36:13.687Z,1.00
2022-09-12T11:41:24.874Z,1.08
2022-09-12T11:46:35.029Z,0.55
2022-09-12T11:51:45.522Z,0.77
2022-09-12T11:56:53.014Z,2.63
2022-09-12T12:02:00.688Z,1.42
2022-09-12T12:07:08.569Z,1.10
2022-09-12T12:12:19.549Z,0.60
2022-09-12T12:17:25.557Z,2.05
2022-09-12T12:22:31.443Z,1.13
2022-09-12T12:27:53.733Z,3.95
2022-09-12T12:33:00.747Z,0.57
2022-09-12T12:38:27.352Z,3.20
2022-09-12T12:43:32.740Z,0.63
2022-09-12T12:49:10.830Z,0.90
2022-09-12T12:54:46.866Z,2.05
2022-09-12T12:59:54.941Z,12.88
2022-09-12T13:05:01.309Z,5.35
2022-09-12T13:10:09.418Z,6.88
2022-09-12T13:15:53.035Z,1.73
2022-09-12T13:21:05.353Z,1.38
2022-09-12T13:26:14.006Z,1.23
2022-09-12T13:31:24.258Z,1.75
2022-09-12T13:36:45.991Z,0.85
2022-09-12T13:42:31.029Z,0.90
2022-09-12T13:47:39.642Z,2.58
2022-09-12T13:52:49.697Z,0.68
2022-09-12T13:57:59.901Z,1.02
2022-09-12T14:03:43.209Z,5.20
2022-09-12T14:08:48.487Z,0.88
2022-09-12T14:13:52.813Z,0.63
2022-09-12T14:18:59.833Z,5.35
2022-09-12T14:24:05.858Z,1.75
2022-09-12T14:29:10.265Z,4.63
2022-09-12T14:34:17.620Z,0.60
2022-09-12T14:39:25.816Z,1.48
2022-09-12T14:44:32.161Z,1.85
2022-09-12T14:49:38.665Z,5.63
2022-09-12T14:54:44.604Z,2.78
2022-09-12T14:59:48.053Z,0.95
2022-09-12T15:04:54.597Z,6.28
2022-09-12T15:10:00.258Z,2.95
2022-09-12T15:15:15.552Z,2.88
2022-09-12T15:20:20.530Z,3.85
2022-09-12T15:25:24.050Z,1.40
2022-09-12T15:30:28.037Z,2.60
2022-09-12T15:35:34.592Z,4.05
2022-09-12T15:40:37.983Z,3.53
2022-09-12T15:45:51.603Z,3.13
2022-09-12T15:51:01.461Z,7.00
2022-09-12T15:56:05.206Z,4.07
2022-09-12T16:01:11.281Z,7.22
2022-09-12T16:06:16.513Z,1.40
2022-09-12T16:11:22.662Z,7.10
2022-09-12T16:16:26.377Z,8.00
2022-09-12T16:21:31.982Z,3.38
2022-09-12T16:26:35.568Z,15.80
2022-09-12T16:31:40.150Z,12.23
2022-09-12T16:36:45.418Z,3.10
2022-09-12T16:41:48.800Z,22.73
2022-09-12T16:46:52.281Z,5.43
2022-09-12T16:51:57.106Z,4.20
2022-09-12T16:57:00.708Z,2.10
2022-09-12T17:02:04.502Z,2.40
2022-09-12T17:07:10.144Z,6.93
2022-09-12T17:12:13.918Z,5.78
2022-09-12T17:17:17.292Z,4.72
2022-09-12T17:22:22.117Z,2.60
2022-09-12T17:27:25.641Z,1.60
2022-09-12T17:32:29.344Z,3.80
2022-09-12T17:37:36.822Z,4.93
2022-09-12T17:42:41.001Z,2.47
2022-09-12T17:47:44.657Z,4.40
2022-09-12T17:52:49.476Z,8.23
2022-09-12T17:57:53.057Z,13.15
2022-09-12T18:02:56.496Z,50.70
2022-09-12T18:08:01.724Z,90.88
2022-09-12T18:13:05.168Z,94.38
2022-09-12T18:18:08.712Z,41.70
2022-09-12T18:23:13.684Z,15.23
2022-09-12T18:28:18.597Z,10.13
2022-09-12T18:33:24.084Z,1.20
2022-09-12T18:38:29.146Z,2.35
2022-09-12T18:43:33.018Z,3.38
2022-09-12T18:48:36.755Z,2.30
2022-09-12T18:53:42.764Z,1.85
2022-09-12T18:58:47.451Z,2.47
2022-09-12T19:03:52.265Z,3.47
2022-09-12T19:08:59.626Z,3.42
2022-09-12T19:14:05.756Z,4.47
2022-09-12T19:19:09.244Z,4.15
2022-09-12T19:24:14.911Z,3.83
2022-09-12T19:29:18.498Z,2.55
2022-09-12T19:34:22.067Z,1.63
2022-09-12T19:39:26.996Z,1.35
2022-09-12T19:44:31.888Z,2.15
2022-09-12T19:49:35.330Z,1.63
2022-09-12T19:54:40.128Z,2.58
2022-09-12T19:59:45.202Z,5.32
2022-09-12T20:04:48.668Z,5.45
2022-09-12T20:09:55.096Z,6.95
2022-09-12T20:14:58.771Z,3.43
2022-09-12T20:20:02.327Z,1.70
2022-09-12T20:25:08.955Z,1.88
2022-09-12T20:30:14.474Z,2.47
2022-09-12T20:35:18.518Z,2.75
2022-09-12T20:40:23.902Z,4.82
2022-09-12T20:45:27.337Z,1.30
2022-09-12T20:50:30.953Z,1.58
2022-09-12T20:55:35.881Z,1.75
2022-09-12T21:00:39.772Z,3.28
2022-09-12T21:05:43.793Z,1.90
2022-09-12T21:10:48.662Z,3.63
2022-09-12T21:15:59.547Z,4.18
2022-09-12T21:21:03.293Z,2.65
2022-09-12T21:26:08.432Z,6.40
2022-09-12T21:31:12.165Z,1.90
2022-09-12T21:36:15.694Z,1.90
2022-09-12T21:41:20.799Z,2.43
2022-09-12T21:46:24.180Z,6.63
2022-09-12T21:51:27.887Z,4.97
2022-09-12T21:56:32.751Z,5.33
2022-09-12T22:01:36.203Z,4.03
2022-09-12T22:06:40.217Z,5.03
2022-09-12T22:11:45.673Z,2.40
2022-09-12T22:16:49.827Z,3.23
2022-09-12T22:22:11.053Z,2.78
2022-09-12T22:27:15.890Z,2.30
2022-09-12T22:32:19.891Z,2.37
2022-09-12T22:37:23.406Z,2.67
2022-09-12T22:42:29.820Z,5.70
2022-09-12T22:47:33.255Z,3.07
2022-09-12T22:52:36.629Z,2.30
2022-09-12T22:57:41.712Z,1.77
2022-09-12T23:02:45.142Z,1.63
2022-09-12T23:07:48.887Z,3.30
2022-09-12T23:12:55.046Z,3.37
2022-09-12T23:17:58.923Z,1.53
2022-09-12T23:23:02.457Z,2.85
2022-09-12T23:28:07.874Z,2.77
2022-09-12T23:33:11.377Z,3.03
2022-09-12T23:38:15.270Z,1.30
2022-09-12T23:43:20.071Z,1.10
2022-09-12T23:48:23.550Z,1.30
2022-09-12T23:53:27.625Z,1.87
2022-09-12T23:58:32.488Z,1.77
